Time;durP1;ratioP1;P1;durP2;ratioP2;P2;SDS_P1;SDS_P2;PMS_P1;PMS_P2;Temp;Humidity;BMP_temperature;BMP_pressure;BME280_temperature;BME280_humidity;BME280_pressure;Samples;Min_cycle;Max_cycle;Signal;HPM_P1;HPM_P2
2022/03/14 00:01:21;;;;;;;26.48;14.25;;;;;;;;;;4963668;28;20266;-79
2022/03/14 00:03:50;;;;;;;26.63;13.90;;;;;;;;;;4950743;28;20463;-80
2022/03/14 00:06:17;;;;;;;24.58;13.50;;;;;;;;;;4944695;28;20050;-79
2022/03/14 00:08:45;;;;;;;26.38;13.93;;;;;;;;;;4939438;28;20039;-80
2022/03/14 00:11:13;;;;;;;26.08;14.00;;;;;;;;;;4933003;28;20123;-79
2022/03/14 00:13:39;;;;;;;24.98;14.07;;;;;;;;;;4938796;28;20043;-80
2022/03/14 00:16:07;;;;;;;21.88;14.07;;;;;;;;;;4947485;28;20500;-79
2022/03/14 00:18:34;;;;;;;24.45;14.55;;;;;;;;;;4962361;28;20632;-80
2022/03/14 00:21:00;;;;;;;23.92;13.18;;;;;;;;;;4942821;28;20039;-79
2022/03/14 00:23:27;;;;;;;26.30;14.63;;;;;;;;;;4948976;28;20098;-80
2022/03/14 00:25:54;;;;;;;24.77;14.85;;;;;;;;;;4964445;28;20541;-80
2022/03/14 00:28:20;;;;;;;22.27;13.68;;;;;;;;;;4954368;28;20117;-79
2022/03/14 00:30:45;;;;;;;23.73;14.10;;;;;;;;;;4938723;28;20039;-79
2022/03/14 00:33:11;;;;;;;24.77;14.43;;;;;;;;;;4954312;28;20138;-79
2022/03/14 00:35:37;;;;;;;24.77;13.82;;;;;;;;;;4963483;28;20055;-79
2022/03/14 00:38:02;;;;;;;24.30;13.88;;;;;;;;;;4939385;28;20125;-79
2022/03/14 00:40:28;;;;;;;24.90;14.80;;;;;;;;;;4948310;28;20065;-79
2022/03/14 00:42:54;;;;;;;23.45;14.10;;;;;;;;;;4953271;28;20045;-80
2022/03/14 00:45:24;;;;;;;29.05;16.40;;;;;;;;;;4949600;28;20031;-79
2022/03/14 00:47:50;;;;;;;26.85;15.35;;;;;;;;;;4959652;28;20271;-79
2022/03/14 00:50:16;;;;;;;24.05;14.30;;;;;;;;;;4930978;29;20046;-80
2022/03/14 00:52:41;;;;;;;25.85;14.52;;;;;;;;;;4961543;28;20424;-80
2022/03/14 00:55:07;;;;;;;23.65;13.82;;;;;;;;;;4949422;28;20511;-80
2022/03/14 00:57:33;;;;;;;28.90;15.48;;;;;;;;;;4939149;28;20039;-80
2022/03/14 00:59:59;;;;;;;28.70;14.93;;;;;;;;;;4943294;28;20113;-79
2022/03/14 01:02:25;;;;;;;24.38;14.45;;;;;;;;;;4942166;28;20131;-80
2022/03/14 01:04:51;;;;;;;27.80;15.55;;;;;;;;;;4953569;28;20528;-79
2022/03/14 01:07:16;;;;;;;26.48;15.50;;;;;;;;;;4946151;28;20503;-80
2022/03/14 01:09:42;;;;;;;30.65;15.40;;;;;;;;;;4965658;28;20121;-79
2022/03/14 01:12:08;;;;;;;25.30;15.63;;;;;;;;;;4965145;28;20591;-80
2022/03/14 01:14:34;;;;;;;27.88;15.48;;;;;;;;;;4949567;28;20268;-80
2022/03/14 01:17:00;;;;;;;26.65;15.85;;;;;;;;;;4954420;28;20065;-79
2022/03/14 01:19:25;;;;;;;26.88;14.77;;;;;;;;;;4951631;28;20038;-79
2022/03/14 01:21:51;;;;;;;25.13;15.77;;;;;;;;;;4937144;28;20118;-80
2022/03/14 01:24:17;;;;;;;27.83;14.77;;;;;;;;;;4939626;28;20466;-79
2022/03/14 01:26:44;;;;;;;25.23;14.05;;;;;;;;;;4930272;28;20064;-79
2022/03/14 01:29:10;;;;;;;28.02;14.90;;;;;;;;;;4943210;28;20035;-80
2022/03/14 01:31:36;;;;;;;27.42;14.90;;;;;;;;;;4965105;28;20046;-79
2022/03/14 01:34:02;;;;;;;25.90;14.15;;;;;;;;;;4947702;28;20070;-79
2022/03/14 01:36:27;;;;;;;26.85;15.15;;;;;;;;;;4959188;28;20140;-80
2022/03/14 01:38:55;;;;;;;26.02;15.48;;;;;;;;;;4958414;28;20418;-79
2022/03/14 01:41:22;;;;;;;26.15;15.18;;;;;;;;;;4924598;28;20039;-79
2022/03/14 01:43:49;;;;;;;26.88;14.82;;;;;;;;;;4942520;28;20049;-79
2022/03/14 01:46:16;;;;;;;25.13;14.40;;;;;;;;;;4929953;29;20059;-79
2022/03/14 01:48:43;;;;;;;26.33;14.63;;;;;;;;;;4931900;28;20054;-80
2022/03/14 01:51:09;;;;;;;28.65;14.38;;;;;;;;;;4947886;28;20054;-79
2022/03/14 01:53:35;;;;;;;23.85;13.93;;;;;;;;;;4944416;28;20049;-79
2022/03/14 01:56:01;;;;;;;26.00;14.00;;;;;;;;;;4947617;28;20053;-80
2022/03/14 01:58:27;;;;;;;22.73;13.82;;;;;;;;;;4940634;28;20042;-79
2022/03/14 02:00:52;;;;;;;25.95;14.77;;;;;;;;;;4931282;28;20044;-80
2022/03/14 02:03:18;;;;;;;24.70;14.52;;;;;;;;;;4932523;28;20070;-80
2022/03/14 02:05:45;;;;;;;24.08;14.27;;;;;;;;;;4948441;28;20090;-79
2022/03/14 02:08:11;;;;;;;28.35;15.02;;;;;;;;;;4948695;28;20125;-79
2022/03/14 02:10:40;;;;;;;25.17;14.93;;;;;;;;;;4934769;28;20567;-79
2022/03/14 02:13:07;;;;;;;25.05;14.20;;;;;;;;;;4938989;28;20050;-79
2022/03/14 02:15:33;;;;;;;27.70;15.45;;;;;;;;;;4949463;28;20475;-80
2022/03/14 02:17:59;;;;;;;25.40;13.88;;;;;;;;;;4946434;28;20051;-79
2022/03/14 02:20:25;;;;;;;29.10;14.60;;;;;;;;;;4947933;28;20460;-79
2022/03/14 02:22:50;;;;;;;28.15;14.90;;;;;;;;;;4941491;28;20067;-79
2022/03/14 02:25:16;;;;;;;28.30;16.00;;;;;;;;;;4956155;28;20059;-80
2022/03/14 02:27:42;;;;;;;24.80;13.95;;;;;;;;;;4945274;28;20047;-79
2022/03/14 02:30:08;;;;;;;26.80;15.80;;;;;;;;;;4941993;28;20118;-79
2022/03/14 02:32:39;;;;;;;25.08;14.35;;;;;;;;;;4963545;28;20528;-79
2022/03/14 02:35:05;;;;;;;28.83;14.70;;;;;;;;;;4956784;28;20042;-79
2022/03/14 02:37:30;;;;;;;25.70;14.68;;;;;;;;;;4924524;28;20043;-80
2022/03/14 02:39:56;;;;;;;23.63;14.60;;;;;;;;;;4952615;28;20480;-79
2022/03/14 02:42:22;;;;;;;27.48;15.02;;;;;;;;;;4944589;28;20130;-79
2022/03/14 02:44:48;;;;;;;25.80;14.20;;;;;;;;;;4948163;28;20073;-79
2022/03/14 02:47:14;;;;;;;23.15;13.43;;;;;;;;;;4953525;28;20047;-79
2022/03/14 02:49:40;;;;;;;28.83;14.40;;;;;;;;;;4943353;28;20050;-79
2022/03/14 02:52:06;;;;;;;24.27;14.43;;;;;;;;;;4952538;28;20078;-79
2022/03/14 02:54:31;;;;;;;24.98;14.00;;;;;;;;;;4945921;28;20035;-80
2022/03/14 02:56:57;;;;;;;23.67;13.80;;;;;;;;;;4963461;28;20122;-79
2022/03/14 02:59:23;;;;;;;25.27;14.50;;;;;;;;;;4935572;28;20066;-79
2022/03/14 03:01:48;;;;;;;25.92;13.82;;;;;;;;;;4947540;28;20122;-79
2022/03/14 03:04:14;;;;;;;25.50;14.57;;;;;;;;;;4935748;28;20075;-79
2022/03/14 03:06:40;;;;;;;27.27;14.27;;;;;;;;;;4947483;28;20121;-79
2022/03/14 03:09:06;;;;;;;25.58;13.70;;;;;;;;;;4947214;28;20420;-79
2022/03/14 03:11:32;;;;;;;22.63;13.88;;;;;;;;;;4945769;28;20082;-79
2022/03/14 03:13:59;;;;;;;25.60;14.35;;;;;;;;;;4952681;28;20424;-79
2022/03/14 03:16:26;;;;;;;29.25;14.18;;;;;;;;;;4950620;28;20035;-80
2022/03/14 03:18:52;;;;;;;27.63;14.57;;;;;;;;;;4955039;28;20046;-79
2022/03/14 03:21:17;;;;;;;29.33;15.13;;;;;;;;;;4959445;28;20047;-79
2022/03/14 03:23:43;;;;;;;27.63;14.30;;;;;;;;;;4944271;28;20508;-79
2022/03/14 03:26:09;;;;;;;29.08;14.65;;;;;;;;;;4955357;28;20268;-79
2022/03/14 03:28:35;;;;;;;26.90;14.25;;;;;;;;;;4966693;28;20070;-79
2022/03/14 03:31:19;;;;;;;27.52;14.43;;;;;;;;;;4950819;28;20085;-79
2022/03/14 03:33:47;;;;;;;26.42;13.55;;;;;;;;;;4964118;28;20042;-79
2022/03/14 03:36:12;;;;;;;25.15;13.95;;;;;;;;;;4968250;28;20043;-79
2022/03/14 03:38:39;;;;;;;25.90;13.57;;;;;;;;;;4951572;28;20467;-79
2022/03/14 03:41:05;;;;;;;24.67;13.68;;;;;;;;;;4966109;28;20108;-80
2022/03/14 03:43:31;;;;;;;24.20;12.63;;;;;;;;;;4952497;28;20042;-79
2022/03/14 03:45:56;;;;;;;26.13;14.05;;;;;;;;;;4947129;28;20039;-79
2022/03/14 03:48:22;;;;;;;26.55;14.02;;;;;;;;;;4953282;28;20496;-79
2022/03/14 03:50:48;;;;;;;25.77;13.75;;;;;;;;;;4961212;28;20044;-80
2022/03/14 03:53:14;;;;;;;27.08;14.82;;;;;;;;;;4932810;28;20046;-79
2022/03/14 03:55:40;;;;;;;24.30;13.73;;;;;;;;;;4947578;28;20070;-79
2022/03/14 03:58:05;;;;;;;24.52;13.70;;;;;;;;;;4934400;28;20058;-80
2022/03/14 04:00:31;;;;;;;22.88;13.18;;;;;;;;;;4968974;28;20275;-80
2022/03/14 04:02:58;;;;;;;26.05;14.50;;;;;;;;;;4933441;28;20083;-81
2022/03/14 04:05:27;;;;;;;28.40;14.13;;;;;;;;;;4950033;28;20135;-80
2022/03/14 04:07:58;;;;;;;27.45;13.85;;;;;;;;;;4979421;28;20488;-80
2022/03/14 04:10:27;;;;;;;31.15;14.70;;;;;;;;;;4951188;28;20035;-81
2022/03/14 04:12:53;;;;;;;24.98;14.90;;;;;;;;;;4958589;28;20567;-80
2022/03/14 04:15:22;;;;;;;31.42;14.48;;;;;;;;;;4937594;29;20039;-80
2022/03/14 04:17:49;;;;;;;25.92;13.43;;;;;;;;;;4934878;28;20039;-80
2022/03/14 04:20:15;;;;;;;24.10;13.93;;;;;;;;;;4949829;28;20070;-80
2022/03/14 04:22:41;;;;;;;30.02;14.48;;;;;;;;;;4954336;28;20409;-81
2022/03/14 04:25:11;;;;;;;25.23;14.20;;;;;;;;;;4957704;28;20042;-80
2022/03/14 04:27:36;;;;;;;24.60;14.40;;;;;;;;;;4948783;28;20046;-80
2022/03/14 04:30:02;;;;;;;26.10;14.82;;;;;;;;;;4961540;28;20039;-80
2022/03/14 04:32:29;;;;;;;29.75;15.52;;;;;;;;;;4931684;29;20082;-80
2022/03/14 04:34:54;;;;;;;24.20;13.45;;;;;;;;;;4954918;28;20040;-80
2022/03/14 04:37:20;;;;;;;33.08;16.17;;;;;;;;;;4938239;28;20049;-80
2022/03/14 04:39:46;;;;;;;24.83;13.77;;;;;;;;;;4951075;28;20486;-80
2022/03/14 04:42:12;;;;;;;26.10;14.85;;;;;;;;;;4957602;28;20536;-80
2022/03/14 04:44:37;;;;;;;29.38;14.43;;;;;;;;;;4952864;28;20034;-80
2022/03/14 04:47:04;;;;;;;34.17;16.30;;;;;;;;;;4963327;28;20046;-81
2022/03/14 04:49:30;;;;;;;25.70;14.68;;;;;;;;;;4952925;28;20526;-80
2022/03/14 04:51:55;;;;;;;29.20;15.90;;;;;;;;;;4952226;28;20054;-80
2022/03/14 04:54:22;;;;;;;27.30;15.23;;;;;;;;;;4966435;28;20070;-80
2022/03/14 04:56:49;;;;;;;28.55;14.75;;;;;;;;;;4945924;28;20054;-81
2022/03/14 04:59:15;;;;;;;26.95;15.13;;;;;;;;;;4949857;28;20042;-80
2022/03/14 05:01:40;;;;;;;26.90;14.98;;;;;;;;;;4941419;28;20045;-80
2022/03/14 05:04:43;;;;;;;31.17;16.02;;;;;;;;;;4949665;28;20046;-83
2022/03/14 05:07:09;;;;;;;30.15;15.30;;;;;;;;;;4978142;28;20146;-82
2022/03/14 05:09:35;;;;;;;27.33;15.50;;;;;;;;;;4980198;28;20054;-82
2022/03/14 05:12:00;;;;;;;26.25;13.68;;;;;;;;;;4976207;28;20393;-82
2022/03/14 05:14:27;;;;;;;30.85;16.20;;;;;;;;;;4957806;28;20078;-82
2022/03/14 05:16:52;;;;;;;28.20;15.25;;;;;;;;;;4972589;28;20042;-82
2022/03/14 05:19:18;;;;;;;29.10;14.70;;;;;;;;;;4977838;28;20534;-82
2022/03/14 05:21:44;;;;;;;25.25;14.00;;;;;;;;;;4952006;28;20094;-82
2022/03/14 05:24:09;;;;;;;30.42;16.23;;;;;;;;;;4956760;28;20046;-82
2022/03/14 05:26:35;;;;;;;30.77;15.32;;;;;;;;;;4943007;28;20059;-82
2022/03/14 05:29:01;;;;;;;27.70;14.40;;;;;;;;;;4953602;28;20051;-81
2022/03/14 05:31:27;;;;;;;28.48;15.18;;;;;;;;;;4942724;28;20046;-82
2022/03/14 05:33:53;;;;;;;30.85;15.63;;;;;;;;;;4968295;28;20038;-82
2022/03/14 05:36:18;;;;;;;35.55;16.02;;;;;;;;;;4956647;28;20097;-82
2022/03/14 05:38:45;;;;;;;25.60;14.90;;;;;;;;;;4953028;28;20106;-82
2022/03/14 05:41:10;;;;;;;31.55;16.10;;;;;;;;;;4947796;28;20046;-80
2022/03/14 05:43:36;;;;;;;30.65;15.52;;;;;;;;;;4937085;28;20887;-80
2022/03/14 05:46:07;;;;;;;32.35;15.93;;;;;;;;;;4960638;28;20109;-80
2022/03/14 05:48:34;;;;;;;34.53;15.75;;;;;;;;;;4947680;28;20114;-80
2022/03/14 05:51:01;;;;;;;30.48;15.10;;;;;;;;;;4950960;28;20133;-80
2022/03/14 05:53:27;;;;;;;34.13;15.85;;;;;;;;;;4945663;28;20039;-79
2022/03/14 05:55:53;;;;;;;34.30;15.07;;;;;;;;;;4965272;28;20126;-79
2022/03/14 05:58:19;;;;;;;27.65;16.50;;;;;;;;;;4962039;28;20118;-81
2022/03/14 06:00:48;;;;;;;29.65;15.77;;;;;;;;;;4946021;28;20457;-79
2022/03/14 06:03:14;;;;;;;33.53;16.60;;;;;;;;;;4939922;28;20042;-80
2022/03/14 06:05:40;;;;;;;31.92;15.90;;;;;;;;;;4945374;28;20076;-80
2022/03/14 06:08:06;;;;;;;36.13;17.00;;;;;;;;;;4953051;28;20047;-78
2022/03/14 06:10:33;;;;;;;33.65;16.40;;;;;;;;;;4944877;28;20039;-79
2022/03/14 06:12:58;;;;;;;31.70;16.20;;;;;;;;;;4944610;28;20053;-79
2022/03/14 06:15:25;;;;;;;30.92;16.35;;;;;;;;;;4946715;28;20043;-79
2022/03/14 06:17:51;;;;;;;30.95;16.13;;;;;;;;;;4934298;28;20058;-80
2022/03/14 06:20:17;;;;;;;29.05;15.90;;;;;;;;;;4933112;28;20075;-79
2022/03/14 06:22:46;;;;;;;29.58;15.90;;;;;;;;;;4955610;28;20039;-80
2022/03/14 06:25:13;;;;;;;32.40;16.25;;;;;;;;;;4936555;28;20118;-80
2022/03/14 06:27:39;;;;;;;29.30;16.25;;;;;;;;;;4946106;28;20126;-82
2022/03/14 06:30:07;;;;;;;29.85;16.77;;;;;;;;;;4930505;28;20106;-81
2022/03/14 06:32:40;;;;;;;26.67;17.08;;;;;;;;;;4947618;28;20039;-80
2022/03/14 06:35:09;;;;;;;30.50;15.68;;;;;;;;;;4939626;28;20047;-80
2022/03/14 06:37:34;;;;;;;29.92;16.25;;;;;;;;;;4932663;28;20238;-81
2022/03/14 06:40:00;;;;;;;31.67;15.00;;;;;;;;;;4950203;28;20129;-81
2022/03/14 06:42:26;;;;;;;33.72;16.80;;;;;;;;;;4934690;28;20421;-80
2022/03/14 06:44:53;;;;;;;32.72;15.13;;;;;;;;;;4955531;28;20039;-79
2022/03/14 06:47:21;;;;;;;35.53;16.45;;;;;;;;;;4949422;28;20396;-80
2022/03/14 06:49:46;;;;;;;28.00;15.02;;;;;;;;;;4949949;28;20062;-80
2022/03/14 06:52:13;;;;;;;31.15;16.65;;;;;;;;;;4963952;28;20050;-79
2022/03/14 06:54:41;;;;;;;33.67;16.38;;;;;;;;;;4959531;28;20065;-78
2022/03/14 06:57:08;;;;;;;30.05;15.88;;;;;;;;;;4961059;28;20063;-78
2022/03/14 06:59:34;;;;;;;34.15;16.58;;;;;;;;;;4946179;28;20053;-78
2022/03/14 07:02:00;;;;;;;31.67;16.33;;;;;;;;;;4935403;28;20051;-78
2022/03/14 07:04:25;;;;;;;31.80;16.70;;;;;;;;;;4924770;28;20097;-78
2022/03/14 07:06:51;;;;;;;30.02;16.80;;;;;;;;;;4952347;28;20047;-81
2022/03/14 07:09:17;;;;;;;38.63;16.05;;;;;;;;;;4940064;28;20492;-78
2022/03/14 07:11:43;;;;;;;36.33;16.42;;;;;;;;;;4946146;28;20119;-77
2022/03/14 07:14:09;;;;;;;33.40;16.38;;;;;;;;;;4945104;28;20074;-77
2022/03/14 07:16:35;;;;;;;34.40;16.77;;;;;;;;;;4957902;28;20043;-78
2022/03/14 07:19:01;;;;;;;38.03;17.13;;;;;;;;;;4958754;28;20559;-77
2022/03/14 07:21:28;;;;;;;40.72;16.88;;;;;;;;;;4937977;28;20121;-77
2022/03/14 07:23:58;;;;;;;36.42;16.63;;;;;;;;;;4964399;28;20452;-77
2022/03/14 07:26:24;;;;;;;38.17;17.38;;;;;;;;;;4962267;28;20045;-78
2022/03/14 07:28:50;;;;;;;37.88;16.48;;;;;;;;;;4952784;28;20146;-78
2022/03/14 07:31:17;;;;;;;30.92;17.08;;;;;;;;;;4953319;28;20484;-78
2022/03/14 07:33:43;;;;;;;38.15;16.48;;;;;;;;;;4960828;28;20058;-78
2022/03/14 07:36:11;;;;;;;34.67;15.68;;;;;;;;;;4922409;28;20071;-78
2022/03/14 07:38:37;;;;;;;31.85;16.45;;;;;;;;;;4955845;28;20039;-79
2022/03/14 07:41:02;;;;;;;32.33;15.68;;;;;;;;;;4951489;28;20058;-78
2022/03/14 07:43:28;;;;;;;29.30;15.73;;;;;;;;;;4931309;28;20078;-78
2022/03/14 07:45:54;;;;;;;27.67;14.75;;;;;;;;;;4963387;28;20054;-78
2022/03/14 07:48:20;;;;;;;26.30;14.45;;;;;;;;;;4951905;28;20074;-78
2022/03/14 07:50:46;;;;;;;29.58;14.73;;;;;;;;;;4931666;28;20047;-78
2022/03/14 07:53:12;;;;;;;30.52;16.75;;;;;;;;;;4960703;28;20223;-78
2022/03/14 07:55:38;;;;;;;24.38;14.40;;;;;;;;;;4944760;28;20109;-78
2022/03/14 07:58:04;;;;;;;29.90;15.52;;;;;;;;;;4946112;28;20513;-78
2022/03/14 08:00:30;;;;;;;27.83;14.85;;;;;;;;;;4962283;28;20046;-77
2022/03/14 08:02:56;;;;;;;28.73;15.80;;;;;;;;;;4942326;28;20137;-77
2022/03/14 08:05:25;;;;;;;30.60;16.02;;;;;;;;;;4945811;28;20048;-77
2022/03/14 08:07:51;;;;;;;27.20;15.30;;;;;;;;;;4938537;28;20560;-77
2022/03/14 08:10:18;;;;;;;25.88;14.93;;;;;;;;;;4958822;28;20069;-77
2022/03/14 08:12:55;;;;;;;25.60;15.45;;;;;;;;;;4953680;28;20110;-78
2022/03/14 08:15:26;;;;;;;23.50;13.50;;;;;;;;;;4964361;28;20039;-78
2022/03/14 08:17:54;;;;;;;23.83;13.15;;;;;;;;;;4948502;28;20793;-80
2022/03/14 08:20:20;;;;;;;21.65;12.48;;;;;;;;;;4966284;28;20041;-78
2022/03/14 08:22:47;;;;;;;19.98;12.10;;;;;;;;;;4939050;28;20042;-77
2022/03/14 08:25:14;;;;;;;20.90;11.63;;;;;;;;;;4931136;28;20043;-77
2022/03/14 08:27:40;;;;;;;20.23;11.48;;;;;;;;;;4929291;28;20445;-77
2022/03/14 08:30:06;;;;;;;18.48;10.55;;;;;;;;;;4956790;28;20057;-77
2022/03/14 08:32:33;;;;;;;18.95;10.73;;;;;;;;;;4934630;28;20419;-77
2022/03/14 08:35:06;;;;;;;16.83;10.85;;;;;;;;;;4958401;28;20051;-77
2022/03/14 08:37:32;;;;;;;16.83;9.88;;;;;;;;;;4957835;28;20047;-77
2022/03/14 08:39:58;;;;;;;15.95;10.85;;;;;;;;;;4958410;28;20354;-77
2022/03/14 08:42:24;;;;;;;16.67;9.48;;;;;;;;;;4942369;28;20701;-77
2022/03/14 08:44:49;;;;;;;15.70;10.43;;;;;;;;;;4965947;28;20047;-77
2022/03/14 08:47:15;;;;;;;16.92;10.82;;;;;;;;;;4944784;28;20700;-77
2022/03/14 08:49:41;;;;;;;16.23;9.93;;;;;;;;;;4964991;28;22335;-77
2022/03/14 08:52:07;;;;;;;17.83;10.20;;;;;;;;;;4966341;28;20501;-79
2022/03/14 08:54:32;;;;;;;21.52;10.50;;;;;;;;;;4965457;28;20038;-77
2022/03/14 08:56:58;;;;;;;17.90;10.98;;;;;;;;;;4945450;28;20110;-77
2022/03/14 08:59:24;;;;;;;16.23;9.68;;;;;;;;;;4956719;28;20050;-77
2022/03/14 09:01:50;;;;;;;15.50;10.23;;;;;;;;;;4962877;28;20412;-79
2022/03/14 09:04:16;;;;;;;19.27;10.13;;;;;;;;;;4959902;28;20075;-79
2022/03/14 09:06:42;;;;;;;15.75;10.60;;;;;;;;;;4947160;28;20055;-78
2022/03/14 09:09:08;;;;;;;19.15;9.63;;;;;;;;;;4967186;28;20066;-80
2022/03/14 09:11:33;;;;;;;15.38;10.23;;;;;;;;;;4964410;28;20530;-78
2022/03/14 09:13:59;;;;;;;17.33;11.27;;;;;;;;;;4951024;28;20563;-79
2022/03/14 09:16:25;;;;;;;15.13;10.02;;;;;;;;;;4965199;28;20077;-80
2022/03/14 09:18:52;;;;;;;15.55;10.55;;;;;;;;;;4934775;28;20310;-78
2022/03/14 09:21:19;;;;;;;13.35;10.05;;;;;;;;;;4943424;28;20520;-79
2022/03/14 09:23:45;;;;;;;12.93;9.52;;;;;;;;;;4965529;28;20047;-78
2022/03/14 09:26:11;;;;;;;15.68;10.18;;;;;;;;;;4966334;28;20046;-79
2022/03/14 09:28:44;;;;;;;13.52;9.38;;;;;;;;;;4948379;28;20121;-79
2022/03/14 09:31:09;;;;;;;14.82;9.60;;;;;;;;;;4945688;28;20039;-79
2022/03/14 09:33:35;;;;;;;18.88;10.43;;;;;;;;;;4962181;28;20041;-79
2022/03/14 09:36:02;;;;;;;13.93;10.00;;;;;;;;;;4964543;28;20600;-80
2022/03/14 09:38:29;;;;;;;12.57;9.02;;;;;;;;;;4948042;28;20047;-80
2022/03/14 09:40:54;;;;;;;13.32;9.77;;;;;;;;;;4965085;28;20101;-79
2022/03/14 09:43:20;;;;;;;12.45;8.90;;;;;;;;;;4966273;28;20038;-79
2022/03/14 09:45:50;;;;;;;13.30;9.40;;;;;;;;;;4967830;28;20047;-77
2022/03/14 09:48:16;;;;;;;14.95;9.65;;;;;;;;;;4949662;28;20154;-79
2022/03/14 09:50:44;;;;;;;14.23;9.57;;;;;;;;;;4939001;28;20147;-79
2022/03/14 09:53:12;;;;;;;13.00;8.57;;;;;;;;;;4948453;28;20038;-79
2022/03/14 09:55:43;;;;;;;12.38;8.88;;;;;;;;;;4942761;28;20149;-79
2022/03/14 09:58:16;;;;;;;10.60;8.60;;;;;;;;;;4960047;28;20091;-79
2022/03/14 10:00:42;;;;;;;12.65;9.07;;;;;;;;;;4953690;28;20447;-79
2022/03/14 10:03:09;;;;;;;12.32;9.10;;;;;;;;;;4952082;28;20046;-78
2022/03/14 10:05:35;;;;;;;15.18;10.15;;;;;;;;;;4945239;28;20051;-79
2022/03/14 10:08:01;;;;;;;16.05;9.75;;;;;;;;;;4946300;28;20041;-78
2022/03/14 10:10:27;;;;;;;17.60;9.48;;;;;;;;;;4947068;28;20046;-79
2022/03/14 10:12:53;;;;;;;13.60;9.00;;;;;;;;;;4940347;28;20038;-79
2022/03/14 10:15:22;;;;;;;14.38;9.55;;;;;;;;;;4960069;28;20058;-78
2022/03/14 10:17:48;;;;;;;13.77;9.07;;;;;;;;;;4950363;28;20113;-79
2022/03/14 10:20:18;;;;;;;11.80;9.20;;;;;;;;;;4966503;28;20061;-81
2022/03/14 10:22:44;;;;;;;11.45;9.00;;;;;;;;;;4965899;28;20049;-80
2022/03/14 10:25:13;;;;;;;13.18;9.45;;;;;;;;;;4947262;28;20074;-82
2022/03/14 10:27:40;;;;;;;13.68;9.10;;;;;;;;;;4935562;28;20417;-82
2022/03/14 10:30:08;;;;;;;12.48;9.05;;;;;;;;;;4933894;28;20046;-82
2022/03/14 10:32:36;;;;;;;13.90;9.20;;;;;;;;;;4946444;28;20043;-83
2022/03/14 10:35:07;;;;;;;10.82;9.52;;;;;;;;;;4966024;28;20051;-82
2022/03/14 10:37:35;;;;;;;12.40;9.57;;;;;;;;;;4957581;28;20047;-81
2022/03/14 10:40:07;;;;;;;13.85;10.43;;;;;;;;;;4948624;28;20042;-81
2022/03/14 10:42:40;;;;;;;14.43;9.40;;;;;;;;;;4938984;28;20045;-82
2022/03/14 10:45:15;;;;;;;11.85;9.82;;;;;;;;;;4943999;28;20477;-83
2022/03/14 10:47:52;;;;;;;13.70;10.60;;;;;;;;;;4948533;28;20388;-81
2022/03/14 10:50:29;;;;;;;11.68;10.32;;;;;;;;;;4954954;28;20035;-82
2022/03/14 10:53:21;;;;;;;11.93;9.85;;;;;;;;;;4941632;28;20039;-83
2022/03/14 10:55:58;;;;;;;11.32;10.15;;;;;;;;;;4966385;28;20094;-85
2022/03/14 10:58:33;;;;;;;11.35;10.25;;;;;;;;;;4944577;28;20126;-81
2022/03/14 11:01:04;;;;;;;12.13;10.80;;;;;;;;;;4942576;28;20517;-79
2022/03/14 11:03:32;;;;;;;11.80;10.48;;;;;;;;;;4940587;28;20336;-79
2022/03/14 11:05:58;;;;;;;11.27;10.10;;;;;;;;;;4935722;28;20504;-80
2022/03/14 11:08:31;;;;;;;11.32;9.68;;;;;;;;;;4940876;28;20298;-80
2022/03/14 11:11:01;;;;;;;14.30;10.65;;;;;;;;;;4939434;28;20050;-80
2022/03/14 11:13:26;;;;;;;11.98;9.70;;;;;;;;;;4947086;28;20126;-81
2022/03/14 11:15:52;;;;;;;11.60;10.40;;;;;;;;;;4969474;28;20042;-80
2022/03/14 11:18:19;;;;;;;13.10;10.60;;;;;;;;;;4978652;28;20042;-80
2022/03/14 11:20:46;;;;;;;11.35;10.20;;;;;;;;;;4951911;28;20789;-82
2022/03/14 11:23:13;;;;;;;13.07;10.75;;;;;;;;;;4975131;28;20039;-80
2022/03/14 11:25:39;;;;;;;11.70;10.50;;;;;;;;;;4950753;28;20098;-79
2022/03/14 11:28:06;;;;;;;11.52;9.90;;;;;;;;;;4956543;28;20133;-80
2022/03/14 11:30:35;;;;;;;11.50;10.00;;;;;;;;;;4966494;28;20089;-80
2022/03/14 11:33:03;;;;;;;13.38;10.50;;;;;;;;;;4952935;28;20073;-79
2022/03/14 11:35:30;;;;;;;13.48;10.15;;;;;;;;;;4953885;28;20075;-80
2022/03/14 11:37:57;;;;;;;11.90;10.10;;;;;;;;;;4960229;28;20494;-81
2022/03/14 11:40:23;;;;;;;12.52;10.32;;;;;;;;;;4964229;28;20101;-81
2022/03/14 11:42:49;;;;;;;13.65;9.95;;;;;;;;;;4957342;28;20047;-80
2022/03/14 11:45:15;;;;;;;18.92;10.38;;;;;;;;;;4967131;28;20045;-80
2022/03/14 11:47:42;;;;;;;12.00;10.48;;;;;;;;;;4957725;28;20038;-81
2022/03/14 11:50:08;;;;;;;14.10;9.90;;;;;;;;;;4967676;28;20130;-80
2022/03/14 11:52:36;;;;;;;13.13;9.82;;;;;;;;;;4970943;28;20047;-80
2022/03/14 11:55:03;;;;;;;11.35;10.15;;;;;;;;;;4972001;28;20034;-81
2022/03/14 11:57:41;;;;;;;11.85;10.52;;;;;;;;;;4958265;28;20491;-81
2022/03/14 12:00:21;;;;;;;12.35;10.15;;;;;;;;;;4970832;28;20055;-80
2022/03/14 12:02:55;;;;;;;12.18;10.80;;;;;;;;;;4970582;28;20540;-81
2022/03/14 12:05:44;;;;;;;12.40;9.90;;;;;;;;;;4954787;28;20049;-79
2022/03/14 12:08:15;;;;;;;13.73;10.43;;;;;;;;;;4967590;28;20046;-79
2022/03/14 12:10:41;;;;;;;12.65;11.30;;;;;;;;;;4968634;28;20043;-78
2022/03/14 12:13:07;;;;;;;11.70;10.43;;;;;;;;;;4946049;28;20405;-79
2022/03/14 12:15:48;;;;;;;11.70;10.50;;;;;;;;;;4948384;28;20441;-79
2022/03/14 12:18:22;;;;;;;12.98;10.68;;;;;;;;;;4949940;28;20110;-79
2022/03/14 12:20:49;;;;;;;13.02;10.82;;;;;;;;;;4970133;28;20043;-78
2022/03/14 12:23:22;;;;;;;15.15;10.77;;;;;;;;;;4950461;28;20267;-79
2022/03/14 12:25:48;;;;;;;12.18;10.23;;;;;;;;;;4948023;28;20349;-81
2022/03/14 12:28:29;;;;;;;12.65;10.20;;;;;;;;;;4950642;28;20046;-80
2022/03/14 12:30:59;;;;;;;11.52;10.07;;;;;;;;;;4970134;28;20054;-79
2022/03/14 12:33:36;;;;;;;11.35;10.15;;;;;;;;;;4966702;28;20047;-79
2022/03/14 12:36:22;;;;;;;13.75;11.48;;;;;;;;;;4947898;28;20050;-79
2022/03/14 12:39:06;;;;;;;13.95;10.15;;;;;;;;;;4964847;28;20054;-79
2022/03/14 12:41:32;;;;;;;14.07;10.73;;;;;;;;;;4967447;28;20043;-80
2022/03/14 12:43:58;;;;;;;12.98;10.35;;;;;;;;;;4958868;28;20077;-80
2022/03/14 12:46:25;;;;;;;16.90;11.27;;;;;;;;;;4945862;28;20285;-79
2022/03/14 12:48:53;;;;;;;15.45;10.75;;;;;;;;;;4959277;28;20047;-80
2022/03/14 12:51:26;;;;;;;13.85;10.77;;;;;;;;;;4955142;28;20039;-79
2022/03/14 12:53:59;;;;;;;12.57;11.27;;;;;;;;;;4949479;28;20356;-80
2022/03/14 12:56:31;;;;;;;13.65;11.65;;;;;;;;;;4949943;28;20138;-80
2022/03/14 12:59:00;;;;;;;12.30;11.10;;;;;;;;;;4943987;28;20043;-81
2022/03/14 13:01:27;;;;;;;12.32;11.13;;;;;;;;;;4962862;28;20078;-81
2022/03/14 13:03:53;;;;;;;11.77;10.55;;;;;;;;;;4959302;28;20050;-79
2022/03/14 13:06:38;;;;;;;15.18;11.02;;;;;;;;;;4950814;28;20508;-81
2022/03/14 13:09:04;;;;;;;16.67;10.70;;;;;;;;;;4956187;28;20058;-79
2022/03/14 13:11:40;;;;;;;11.68;9.75;;;;;;;;;;4936985;28;20672;-79
2022/03/14 13:14:11;;;;;;;16.50;11.70;;;;;;;;;;4967454;28;20118;-79
2022/03/14 13:16:39;;;;;;;12.88;11.20;;;;;;;;;;4958356;28;20098;-78
2022/03/14 13:19:14;;;;;;;16.15;11.32;;;;;;;;;;4931976;28;20475;-79
2022/03/14 13:21:40;;;;;;;13.43;11.07;;;;;;;;;;4948278;28;20465;-78
2022/03/14 13:24:09;;;;;;;13.15;11.30;;;;;;;;;;4943118;28;20047;-78
2022/03/14 13:26:36;;;;;;;15.65;11.88;;;;;;;;;;4951051;28;20324;-79
2022/03/14 13:29:04;;;;;;;14.80;10.80;;;;;;;;;;4934336;28;20043;-80
2022/03/14 13:31:32;;;;;;;19.00;12.05;;;;;;;;;;4942485;28;20043;-78
2022/03/14 13:33:58;;;;;;;13.57;11.52;;;;;;;;;;4943548;28;20069;-79
2022/03/14 13:36:24;;;;;;;12.93;11.15;;;;;;;;;;4950480;28;20496;-79
2022/03/14 13:38:52;;;;;;;14.07;11.90;;;;;;;;;;4946109;28;20130;-79
2022/03/14 13:41:23;;;;;;;15.70;11.40;;;;;;;;;;4950489;28;20448;-79
2022/03/14 13:43:51;;;;;;;13.25;11.70;;;;;;;;;;4941449;28;20071;-78
2022/03/14 13:46:32;;;;;;;15.13;11.98;;;;;;;;;;4965657;28;20669;-79
2022/03/14 13:49:17;;;;;;;13.30;11.15;;;;;;;;;;4964655;28;20512;-79
2022/03/14 13:52:00;;;;;;;15.53;12.43;;;;;;;;;;4953683;28;20334;-79
2022/03/14 13:54:29;;;;;;;13.35;11.52;;;;;;;;;;4952060;28;20346;-78
2022/03/14 13:57:06;;;;;;;14.45;12.80;;;;;;;;;;4979087;28;20415;-80
2022/03/14 13:59:34;;;;;;;14.15;11.75;;;;;;;;;;4949200;28;20043;-79
2022/03/14 14:02:07;;;;;;;12.80;11.18;;;;;;;;;;4944580;28;20082;-80
2022/03/14 14:04:36;;;;;;;13.73;12.25;;;;;;;;;;4964783;28;20038;-80
2022/03/14 14:07:21;;;;;;;15.85;12.02;;;;;;;;;;4945971;28;20073;-79
2022/03/14 14:09:48;;;;;;;14.27;11.93;;;;;;;;;;4964239;28;20040;-80
2022/03/14 14:12:32;;;;;;;21.30;11.80;;;;;;;;;;4933460;28;20047;-80
2022/03/14 14:15:00;;;;;;;14.18;11.90;;;;;;;;;;4966704;28;20074;-80
2022/03/14 14:17:36;;;;;;;13.35;11.25;;;;;;;;;;4965470;28;20166;-79
2022/03/14 14:20:07;;;;;;;12.90;11.10;;;;;;;;;;4965208;28;20053;-78
2022/03/14 14:22:33;;;;;;;13.77;11.15;;;;;;;;;;4964988;28;20046;-80